<?xml version='1.0' encoding='UTF-8'?><gpx version="1.1" creator="JPX - https://github.com/jenetics/jpx" xmlns="http://www.topografix.com/GPX/1/1"><trk><trkseg><trkpt lat="43.2415263" lon="12.2229492"><ele>594.0</ele><time>2026-03-29T08:20:33.087Z</time></trkpt><trkpt lat="43.2390161" lon="12.2216785"><ele>590.0</ele><time>2026-03-29T08:20:58.158Z</time></trkpt><trkpt lat="43.237668" lon="12.220935"><ele>583.0</ele><time>2026-03-29T08:21:25.459Z</time></trkpt><trkpt lat="43.2371588" lon="12.2211934"><ele>568.0</ele><time>2026-03-29T08:21:33.433Z</time></trkpt><trkpt lat="43.235776" lon="12.2182558"><ele>313.0</ele><time>2026-03-29T08:21:55.428Z</time></trkpt><trkpt lat="43.246148" lon="12.1460839"><ele>302.0</ele><time>2026-03-29T08:43:58.464Z</time></trkpt><trkpt lat="43.255551" lon="12.1376135"><ele>395.0</ele><time>2026-03-29T08:51:50.719Z</time></trkpt><trkpt lat="43.2410971" lon="12.1413644"><ele>333.0</ele><time>2026-03-29T08:52:04.472Z</time></trkpt><trkpt lat="43.2442104" lon="12.1428579"><ele>325.0</ele><time>2026-03-29T08:53:07.469Z</time></trkpt><trkpt lat="43.2454414" lon="12.1430479"><ele>319.0</ele><time>2026-03-29T08:53:28.472Z</time></trkpt><trkpt lat="43.2462902" lon="12.1429896"><ele>319.0</ele><time>2026-03-29T08:53:42.545Z</time></trkpt><trkpt lat="43.2463753" lon="12.1437285"><ele>319.0</ele><time>2026-03-29T08:53:49.461Z</time></trkpt><trkpt lat="43.2460043" lon="12.1438536"><ele>319.0</ele><time>2026-03-29T08:53:56.493Z</time></trkpt><trkpt lat="43.2463649" lon="12.1438675"><ele>308.0</ele><time>2026-03-29T08:54:03.476Z</time></trkpt><trkpt lat="43.2468821" lon="12.1447672"><ele>308.0</ele><time>2026-03-29T08:54:09.741Z</time></trkpt><trkpt lat="43.2467158" lon="12.1442874"><ele>308.0</ele><time>2026-03-29T08:54:47.299Z</time></trkpt><trkpt lat="43.2467834" lon="12.1444174"><ele>308.0</ele><time>2026-03-29T08:55:18.956Z</time></trkpt><trkpt lat="43.2468818" lon="12.1444796"><ele>308.0</ele><time>2026-03-29T08:55:25.26Z</time></trkpt><trkpt lat="43.2466642" lon="12.1445308"><ele>308.0</ele><time>2026-03-29T08:55:34.163Z</time></trkpt><trkpt lat="43.2466952" lon="12.1444516"><ele>308.0</ele><time>2026-03-29T08:55:45.066Z</time></trkpt><trkpt lat="43.2467852" lon="12.1445345"><ele>308.0</ele><time>2026-03-29T08:56:59.606Z</time></trkpt><trkpt lat="43.2467489" lon="12.1444231"><ele>308.0</ele><time>2026-03-29T09:06:39.39Z</time></trkpt><trkpt lat="43.2468573" lon="12.144189"><ele>308.0</ele><time>2026-03-29T09:06:45.644Z</time></trkpt><trkpt lat="43.2467631" lon="12.1444082"><ele>319.0</ele><time>2026-03-29T09:07:42.105Z</time></trkpt><trkpt lat="43.2463748" lon="12.1438241"><ele>308.0</ele><time>2026-03-29T09:07:48.388Z</time></trkpt><trkpt lat="43.2467323" lon="12.1443766"><ele>308.0</ele><time>2026-03-29T09:07:54.685Z</time></trkpt><trkpt lat="43.246941" lon="12.1443865"><ele>308.0</ele><time>2026-03-29T09:13:47.058Z</time></trkpt><trkpt lat="43.2467897" lon="12.1445449"><ele>308.0</ele><time>2026-03-29T09:13:48.103Z</time></trkpt><trkpt lat="43.246719" lon="12.1445671"><ele>308.0</ele><time>2026-03-29T09:13:58.093Z</time></trkpt><trkpt lat="43.2466484" lon="12.1445779"><ele>308.0</ele><time>2026-03-29T09:14:03.14Z</time></trkpt><trkpt lat="43.2466734" lon="12.1446705"><ele>308.0</ele><time>2026-03-29T09:14:18.071Z</time></trkpt><trkpt lat="43.2467221" lon="12.1447287"><ele>308.0</ele><time>2026-03-29T09:14:23.119Z</time></trkpt><trkpt lat="43.2467809" lon="12.144788"><ele>308.0</ele><time>2026-03-29T09:14:29.113Z</time></trkpt><trkpt lat="43.2463818" lon="12.1435767"><ele>308.0</ele><time>2026-03-29T09:14:49.632Z</time></trkpt><trkpt lat="43.2468315" lon="12.1442777"><ele>308.0</ele><time>2026-03-29T09:15:03.078Z</time></trkpt><trkpt lat="43.2469749" lon="12.1443032"><ele>308.0</ele><time>2026-03-29T09:15:20.111Z</time></trkpt><trkpt lat="43.2469121" lon="12.1446974"><ele>308.0</ele><time>2026-03-29T09:15:27.078Z</time></trkpt><trkpt lat="43.2468035" lon="12.1447806"><ele>308.0</ele><time>2026-03-29T09:15:36.095Z</time></trkpt><trkpt lat="43.2469257" lon="12.1447768"><ele>308.0</ele><time>2026-03-29T09:15:52.13Z</time></trkpt><trkpt lat="43.2468069" lon="12.1447988"><ele>308.0</ele><time>2026-03-29T09:16:40.133Z</time></trkpt><trkpt lat="43.246911" lon="12.1447503"><ele>308.0</ele><time>2026-03-29T09:17:01.289Z</time></trkpt><trkpt lat="43.2475339" lon="12.1421692"><ele>307.0</ele><time>2026-03-29T09:18:19.505Z</time></trkpt><trkpt lat="43.2473529" lon="12.1417667"><ele>306.0</ele><time>2026-03-29T09:18:26.476Z</time></trkpt><trkpt lat="43.2479952" lon="12.1408549"><ele>327.0</ele><time>2026-03-29T09:18:33.411Z</time></trkpt><trkpt lat="43.2483955" lon="12.1397367"><ele>307.0</ele><time>2026-03-29T09:18:40.436Z</time></trkpt><trkpt lat="43.2491606" lon="12.1394487"><ele>307.0</ele><time>2026-03-29T09:18:47.401Z</time></trkpt><trkpt lat="43.2496102" lon="12.1390931"><ele>298.0</ele><time>2026-03-29T09:18:54.496Z</time></trkpt><trkpt lat="43.2500433" lon="12.1395606"><ele>301.0</ele><time>2026-03-29T09:19:01.455Z</time></trkpt><trkpt lat="43.2525339" lon="12.1405301"><ele>303.0</ele><time>2026-03-29T09:19:15.465Z</time></trkpt><trkpt lat="43.2539771" lon="12.1394494"><ele>303.0</ele><time>2026-03-29T09:19:34.886Z</time></trkpt><trkpt lat="43.2540983" lon="12.1395661"><ele>303.0</ele><time>2026-03-29T09:30:40.072Z</time></trkpt><trkpt lat="43.2540384" lon="12.1395081"><ele>303.0</ele><time>2026-03-29T09:30:46.32Z</time></trkpt><trkpt lat="43.253966" lon="12.1395055"><ele>303.0</ele><time>2026-03-29T09:30:54.137Z</time></trkpt><trkpt lat="43.2539187" lon="12.1394358"><ele>303.0</ele><time>2026-03-29T09:32:01.121Z</time></trkpt><trkpt lat="43.253879" lon="12.1395343"><ele>303.0</ele><time>2026-03-29T09:33:09.147Z</time></trkpt><trkpt lat="43.2539252" lon="12.1394706"><ele>303.0</ele><time>2026-03-29T09:33:19.136Z</time></trkpt><trkpt lat="43.253987" lon="12.1394409"><ele>303.0</ele><time>2026-03-29T09:33:24.079Z</time></trkpt><trkpt lat="43.2516597" lon="12.1392967"><ele>307.0</ele><time>2026-03-29T09:34:27.499Z</time></trkpt><trkpt lat="43.2496492" lon="12.1391638"><ele>302.0</ele><time>2026-03-29T09:34:48.455Z</time></trkpt><trkpt lat="43.2554161" lon="12.1339017"><ele>320.0</ele><time>2026-03-29T09:35:09.423Z</time></trkpt><trkpt lat="43.2569422" lon="12.1300571"><ele>481.0</ele><time>2026-03-29T09:35:30.406Z</time></trkpt><trkpt lat="43.2594691" lon="12.1094968"><ele>302.0</ele><time>2026-03-29T09:37:47.471Z</time></trkpt><trkpt lat="43.255519" lon="12.1375748"><ele>481.0</ele><time>2026-03-29T09:39:10.93Z</time></trkpt><trkpt lat="43.2595198" lon="12.1095193"><ele>302.0</ele><time>2026-03-29T09:39:23.428Z</time></trkpt><trkpt lat="43.255519" lon="12.1375748"><ele>332.0</ele><time>2026-03-29T09:40:07.228Z</time></trkpt><trkpt lat="43.2219178" lon="12.2018902"><ele>330.0</ele><time>2026-03-29T09:58:18.404Z</time></trkpt><trkpt lat="43.2202995" lon="12.2036628"><ele>653.0</ele><time>2026-03-29T10:07:36.504Z</time></trkpt><trkpt lat="43.2002801" lon="12.2259912"><ele>659.0</ele><time>2026-03-29T10:18:45.047Z</time></trkpt><trkpt lat="43.2002627" lon="12.2275879"><ele>651.0</ele><time>2026-03-29T10:21:04.629Z</time></trkpt><trkpt lat="43.2006454" lon="12.2285531"><ele>412.0</ele><time>2026-03-29T10:21:11.461Z</time></trkpt><trkpt lat="43.1746213" lon="12.2527512"><ele>321.0</ele><time>2026-03-29T10:29:10.406Z</time></trkpt><trkpt lat="43.1826824" lon="12.2547008"><ele>412.0</ele><time>2026-03-29T10:32:16.457Z</time></trkpt><trkpt lat="43.1746239" lon="12.2527561"><ele>439.0</ele><time>2026-03-29T10:35:46.923Z</time></trkpt><trkpt lat="43.1802818" lon="12.2643235"><ele>288.0</ele><time>2026-03-29T10:39:43.862Z</time></trkpt><trkpt lat="43.1756706" lon="12.2429214"><ele>292.0</ele><time>2026-03-29T10:53:11.443Z</time></trkpt><trkpt lat="43.1747972" lon="12.2409883"><ele>450.0</ele><time>2026-03-29T10:53:25.448Z</time></trkpt><trkpt lat="43.1668219" lon="12.2473989"><ele>294.0</ele><time>2026-03-29T11:00:45.455Z</time></trkpt><trkpt lat="43.126635" lon="12.0537984"><ele>264.0</ele><time>2026-03-29T11:14:17.228Z</time></trkpt><trkpt lat="43.184797" lon="12.160802"><ele>358.0</ele><time>2026-03-29T11:17:43.112Z</time></trkpt><trkpt lat="43.1502033" lon="12.194565"><ele>343.0</ele><time>2026-03-29T11:28:53.563Z</time></trkpt><trkpt lat="43.1489934" lon="12.1923517"><ele>371.0</ele><time>2026-03-29T11:29:07.44Z</time></trkpt><trkpt lat="43.1494894" lon="12.1900562"><ele>386.0</ele><time>2026-03-29T11:29:22.436Z</time></trkpt><trkpt lat="43.1344215" lon="12.1804107"><ele>383.0</ele><time>2026-03-29T11:33:08.452Z</time></trkpt><trkpt lat="43.1323046" lon="12.1799467"><ele>285.0</ele><time>2026-03-29T11:33:29.427Z</time></trkpt><trkpt lat="43.1178275" lon="12.1964229"><ele>250.0</ele><time>2026-03-29T11:38:51.493Z</time></trkpt><trkpt lat="43.116517" lon="12.2001757"><ele>243.0</ele><time>2026-03-29T11:39:05.483Z</time></trkpt><trkpt lat="43.1190146" lon="12.2014532"><ele>244.0</ele><time>2026-03-29T11:39:12.501Z</time></trkpt><trkpt lat="43.1176292" lon="12.2035838"><ele>411.0</ele><time>2026-03-29T11:39:46.526Z</time></trkpt><trkpt lat="43.1130584" lon="12.2210073"><ele>231.0</ele><time>2026-03-29T11:43:03.453Z</time></trkpt><trkpt lat="43.1191506" lon="12.2477473"><ele>233.0</ele><time>2026-03-29T11:58:28.495Z</time></trkpt><trkpt lat="43.1173901" lon="12.2482965"><ele>286.0</ele><time>2026-03-29T11:58:34.787Z</time></trkpt><trkpt lat="43.1277401" lon="12.2659585"><ele>233.0</ele><time>2026-03-29T12:04:59.491Z</time></trkpt><trkpt lat="43.1307989" lon="12.2571505"><ele>233.0</ele><time>2026-03-29T12:05:20.5Z</time></trkpt><trkpt lat="43.1312523" lon="12.256892"><ele>237.0</ele><time>2026-03-29T12:05:27.478Z</time></trkpt><trkpt lat="43.1315123" lon="12.2622018"><ele>238.0</ele><time>2026-03-29T12:05:34.537Z</time></trkpt><trkpt lat="43.1315808" lon="12.2647799"><ele>236.0</ele><time>2026-03-29T12:05:41.462Z</time></trkpt><trkpt lat="43.1318705" lon="12.2613952"><ele>235.0</ele><time>2026-03-29T12:05:53.932Z</time></trkpt><trkpt lat="43.1321738" lon="12.2601139"><ele>236.0</ele><time>2026-03-29T12:06:00.467Z</time></trkpt><trkpt lat="43.1347606" lon="12.264571"><ele>234.0</ele><time>2026-03-29T12:06:21.397Z</time></trkpt><trkpt lat="43.137046" lon="12.2671885"><ele>238.0</ele><time>2026-03-29T12:06:28.414Z</time></trkpt><trkpt lat="43.1399033" lon="12.2697035"><ele>238.5</ele><time>2026-03-29T12:07:10.497Z</time></trkpt><trkpt lat="43.1401075" lon="12.2702098"><ele>239.0</ele><time>2026-03-29T12:07:16.844Z</time></trkpt><trkpt lat="43.1400917" lon="12.2703357"><ele>239.0</ele><time>2026-03-29T12:07:23.118Z</time></trkpt><trkpt lat="43.13996" lon="12.2698674"><ele>239.0</ele><time>2026-03-29T12:07:35.224Z</time></trkpt><trkpt lat="43.1408112" lon="12.2693282"><ele>243.0</ele><time>2026-03-29T12:07:42.726Z</time></trkpt><trkpt lat="43.1448304" lon="12.2697786"><ele>248.0</ele><time>2026-03-29T12:07:49.013Z</time></trkpt><trkpt lat="43.1451832" lon="12.2731934"><ele>247.0</ele><time>2026-03-29T12:08:51.481Z</time></trkpt><trkpt lat="43.1533661" lon="12.2831865"><ele>248.0</ele><time>2026-03-29T12:10:54.451Z</time></trkpt><trkpt lat="43.1531292" lon="12.2844776"><ele>247.0</ele><time>2026-03-29T12:11:15.503Z</time></trkpt><trkpt lat="43.1524483" lon="12.2851433"><ele>250.0</ele><time>2026-03-29T12:11:22.469Z</time></trkpt><trkpt lat="43.1614067" lon="12.2830806"><ele>263.0</ele><time>2026-03-29T12:11:42.195Z</time></trkpt><trkpt lat="43.1643577" lon="12.2737478"><ele>292.0</ele><time>2026-03-29T12:12:50.51Z</time></trkpt><trkpt lat="43.156353" lon="12.2873989"><ele>254.0</ele><time>2026-03-29T12:13:04.47Z</time></trkpt><trkpt lat="43.164353" lon="12.279025"><ele>250.0</ele><time>2026-03-29T12:13:24.491Z</time></trkpt><trkpt lat="43.1627747" lon="12.2807693"><ele>250.0</ele><time>2026-03-29T12:14:11.477Z</time></trkpt><trkpt lat="43.1621987" lon="12.2816601"><ele>251.0</ele><time>2026-03-29T12:14:18.487Z</time></trkpt><trkpt lat="43.1617171" lon="12.2827838"><ele>250.5</ele><time>2026-03-29T12:14:25.527Z</time></trkpt><trkpt lat="43.1614297" lon="12.2831482"><ele>250.0</ele><time>2026-03-29T12:14:32.432Z</time></trkpt><trkpt lat="43.1608823" lon="12.2846315"><ele>251.0</ele><time>2026-03-29T12:14:45.767Z</time></trkpt><trkpt lat="43.1608203" lon="12.2846945"><ele>252.0</ele><time>2026-03-29T12:14:51.986Z</time></trkpt><trkpt lat="43.1609151" lon="12.2840838"><ele>250.0</ele><time>2026-03-29T12:14:58.277Z</time></trkpt><trkpt lat="43.1604364" lon="12.2849393"><ele>250.0</ele><time>2026-03-29T12:15:04.618Z</time></trkpt><trkpt lat="43.1602714" lon="12.2848675"><ele>250.0</ele><time>2026-03-29T12:15:10.909Z</time></trkpt><trkpt lat="43.1605351" lon="12.2847884"><ele>250.0</ele><time>2026-03-29T12:15:17.219Z</time></trkpt><trkpt lat="43.1603309" lon="12.2849196"><ele>250.0</ele><time>2026-03-29T12:18:08.044Z</time></trkpt><trkpt lat="43.1602186" lon="12.2847788"><ele>250.0</ele><time>2026-03-29T12:19:04.958Z</time></trkpt><trkpt lat="43.1603613" lon="12.2840456"><ele>250.0</ele><time>2026-03-29T12:19:11.289Z</time></trkpt><trkpt lat="43.1602495" lon="12.2847358"><ele>250.0</ele><time>2026-03-29T12:19:49.271Z</time></trkpt><trkpt lat="43.1602992" lon="12.2848207"><ele>250.0</ele><time>2026-03-29T12:19:55.593Z</time></trkpt><trkpt lat="43.160651" lon="12.2844645"><ele>250.0</ele><time>2026-03-29T12:20:52.489Z</time></trkpt><trkpt lat="43.1596384" lon="12.2839347"><ele>252.0</ele><time>2026-03-29T12:21:30.427Z</time></trkpt><trkpt lat="43.1607905" lon="12.2843531"><ele>251.0</ele><time>2026-03-29T12:21:43.155Z</time></trkpt><trkpt lat="43.1606155" lon="12.2846867"><ele>250.0</ele><time>2026-03-29T12:21:49.485Z</time></trkpt><trkpt lat="43.1603425" lon="12.2849327"><ele>252.0</ele><time>2026-03-29T12:21:55.81Z</time></trkpt><trkpt lat="43.1608194" lon="12.284636"><ele>250.0</ele><time>2026-03-29T12:22:08.51Z</time></trkpt><trkpt lat="43.1603391" lon="12.2848653"><ele>252.0</ele><time>2026-03-29T12:22:14.884Z</time></trkpt><trkpt lat="43.1608868" lon="12.284695"><ele>251.0</ele><time>2026-03-29T12:22:40.274Z</time></trkpt><trkpt lat="43.1605805" lon="12.2847469"><ele>250.0</ele><time>2026-03-29T12:22:59.311Z</time></trkpt><trkpt lat="43.1603633" lon="12.2846925"><ele>250.0</ele><time>2026-03-29T12:23:05.683Z</time></trkpt><trkpt lat="43.160718" lon="12.2847791"><ele>250.0</ele><time>2026-03-29T12:23:18.3Z</time></trkpt><trkpt lat="43.1603102" lon="12.2848048"><ele>250.0</ele><time>2026-03-29T12:23:30.858Z</time></trkpt><trkpt lat="43.1606851" lon="12.2849243"><ele>250.0</ele><time>2026-03-29T12:24:40.337Z</time></trkpt><trkpt lat="43.1603024" lon="12.2848639"><ele>250.0</ele><time>2026-03-29T12:24:46.67Z</time></trkpt><trkpt lat="43.1605847" lon="12.2844275"><ele>250.0</ele><time>2026-03-29T12:25:55.924Z</time></trkpt><trkpt lat="43.1602973" lon="12.2849325"><ele>250.0</ele><time>2026-03-29T12:26:27.558Z</time></trkpt><trkpt lat="43.1597349" lon="12.2840443"><ele>250.0</ele><time>2026-03-29T12:26:33.97Z</time></trkpt><trkpt lat="43.1603325" lon="12.284871"><ele>252.0</ele><time>2026-03-29T12:26:46.62Z</time></trkpt><trkpt lat="43.1607513" lon="12.2845775"><ele>250.0</ele><time>2026-03-29T12:28:02.188Z</time></trkpt><trkpt lat="43.1602564" lon="12.2848209"><ele>250.0</ele><time>2026-03-29T12:28:08.472Z</time></trkpt><trkpt lat="43.1603335" lon="12.2847797"><ele>250.0</ele><time>2026-03-29T12:28:52.436Z</time></trkpt><trkpt lat="43.1607231" lon="12.2845632"><ele>250.0</ele><time>2026-03-29T12:28:58.711Z</time></trkpt><trkpt lat="43.1603661" lon="12.2847724"><ele>250.0</ele><time>2026-03-29T12:29:05.005Z</time></trkpt><trkpt lat="43.1608592" lon="12.2847512"><ele>250.0</ele><time>2026-03-29T12:30:01.686Z</time></trkpt><trkpt lat="43.1603355" lon="12.2848378"><ele>250.0</ele><time>2026-03-29T12:30:08.049Z</time></trkpt><trkpt lat="43.1602693" lon="12.2847874"><ele>250.0</ele><time>2026-03-29T12:30:14.276Z</time></trkpt><trkpt lat="43.1608914" lon="12.2844263"><ele>250.0</ele><time>2026-03-29T12:31:04.497Z</time></trkpt><trkpt lat="43.1603292" lon="12.2847726"><ele>252.0</ele><time>2026-03-29T12:31:23.297Z</time></trkpt><trkpt lat="43.1608206" lon="12.2841842"><ele>250.0</ele><time>2026-03-29T12:32:19.922Z</time></trkpt><trkpt lat="43.1603686" lon="12.2848098"><ele>250.0</ele><time>2026-03-29T12:32:44.999Z</time></trkpt><trkpt lat="43.1603692" lon="12.28499"><ele>250.0</ele><time>2026-03-29T12:32:51.312Z</time></trkpt><trkpt lat="43.1603527" lon="12.2848919"><ele>250.0</ele><time>2026-03-29T12:35:59.567Z</time></trkpt><trkpt lat="43.160591" lon="12.2846075"><ele>250.0</ele><time>2026-03-29T12:36:05.83Z</time></trkpt><trkpt lat="43.1603659" lon="12.284886"><ele>250.0</ele><time>2026-03-29T12:37:02.381Z</time></trkpt><trkpt lat="43.1603736" lon="12.2847726"><ele>250.0</ele><time>2026-03-29T12:37:08.703Z</time></trkpt><trkpt lat="43.1603051" lon="12.2845007"><ele>250.0</ele><time>2026-03-29T12:37:15.04Z</time></trkpt><trkpt lat="43.1604079" lon="12.2848144"><ele>250.0</ele><time>2026-03-29T12:38:36.955Z</time></trkpt><trkpt lat="43.160812" lon="12.2843374"><ele>250.0</ele><time>2026-03-29T12:39:52.673Z</time></trkpt><trkpt lat="43.1608299" lon="12.2845925"><ele>250.0</ele><time>2026-03-29T12:40:17.782Z</time></trkpt><trkpt lat="43.1602188" lon="12.2847075"><ele>252.0</ele><time>2026-03-29T12:40:24.047Z</time></trkpt><trkpt lat="43.1612039" lon="12.2840284"><ele>252.0</ele><time>2026-03-29T12:40:36.73Z</time></trkpt><trkpt lat="43.1607854" lon="12.2843912"><ele>250.0</ele><time>2026-03-29T12:40:43.068Z</time></trkpt><trkpt lat="43.1603443" lon="12.2848483"><ele>251.0</ele><time>2026-03-29T12:40:49.377Z</time></trkpt><trkpt lat="43.16076" lon="12.2847727"><ele>252.0</ele><time>2026-03-29T12:40:55.76Z</time></trkpt><trkpt lat="43.1608942" lon="12.2846736"><ele>252.0</ele><time>2026-03-29T12:41:02.144Z</time></trkpt><trkpt lat="43.1608198" lon="12.2846426"><ele>252.0</ele><time>2026-03-29T12:41:08.51Z</time></trkpt><trkpt lat="43.1603728" lon="12.2849236"><ele>251.5</ele><time>2026-03-29T12:41:14.858Z</time></trkpt><trkpt lat="43.1604557" lon="12.2847834"><ele>251.0</ele><time>2026-03-29T12:41:35.115Z</time></trkpt><trkpt lat="43.1604797" lon="12.2844707"><ele>250.5</ele><time>2026-03-29T12:41:36.061Z</time></trkpt><trkpt lat="43.1604913" lon="12.2843806"><ele>250.0</ele><time>2026-03-29T12:41:38.164Z</time></trkpt><trkpt lat="43.1605737" lon="12.2843532"><ele>250.0</ele><time>2026-03-29T12:42:39.048Z</time></trkpt><trkpt lat="43.1606373" lon="12.2843259"><ele>250.0</ele><time>2026-03-29T12:42:44.722Z</time></trkpt><trkpt lat="43.1606969" lon="12.2842827"><ele>250.0</ele><time>2026-03-29T12:42:50.087Z</time></trkpt><trkpt lat="43.160756" lon="12.2842348"><ele>250.0</ele><time>2026-03-29T12:42:55.112Z</time></trkpt><trkpt lat="43.1608117" lon="12.284172"><ele>250.0</ele><time>2026-03-29T12:43:00.149Z</time></trkpt><trkpt lat="43.1608676" lon="12.28412"><ele>250.0</ele><time>2026-03-29T12:43:05.054Z</time></trkpt><trkpt lat="43.1609318" lon="12.2840621"><ele>250.0</ele><time>2026-03-29T12:43:10.188Z</time></trkpt><trkpt lat="43.1609879" lon="12.2839886"><ele>250.0</ele><time>2026-03-29T12:43:15.113Z</time></trkpt><trkpt lat="43.161025" lon="12.2839152"><ele>250.0</ele><time>2026-03-29T12:43:21.107Z</time></trkpt><trkpt lat="43.1610627" lon="12.2838405"><ele>250.0</ele><time>2026-03-29T12:43:31.096Z</time></trkpt><trkpt lat="43.161099" lon="12.2837647"><ele>250.0</ele><time>2026-03-29T12:43:38.181Z</time></trkpt><trkpt lat="43.1611566" lon="12.2836962"><ele>250.0</ele><time>2026-03-29T12:43:43.083Z</time></trkpt><trkpt lat="43.1612066" lon="12.283638"><ele>250.0</ele><time>2026-03-29T12:43:48.13Z</time></trkpt><trkpt lat="43.161258" lon="12.2835705"><ele>250.0</ele><time>2026-03-29T12:43:55.07Z</time></trkpt><trkpt lat="43.161301" lon="12.2834878"><ele>250.0</ele><time>2026-03-29T12:44:01.142Z</time></trkpt><trkpt lat="43.161334" lon="12.283408"><ele>250.0</ele><time>2026-03-29T12:44:06.145Z</time></trkpt><trkpt lat="43.1613741" lon="12.2833245"><ele>250.0</ele><time>2026-03-29T12:44:12.191Z</time></trkpt><trkpt lat="43.1614203" lon="12.2832473"><ele>250.0</ele><time>2026-03-29T12:44:19.149Z</time></trkpt><trkpt lat="43.1614339" lon="12.2831585"><ele>250.0</ele><time>2026-03-29T12:44:24.092Z</time></trkpt><trkpt lat="43.1614188" lon="12.283072"><ele>250.0</ele><time>2026-03-29T12:44:29.139Z</time></trkpt><trkpt lat="43.1614267" lon="12.282976"><ele>250.0</ele><time>2026-03-29T12:44:36.078Z</time></trkpt><trkpt lat="43.1614126" lon="12.2828898"><ele>249.99999999999997</ele><time>2026-03-29T12:44:45.121Z</time></trkpt><trkpt lat="43.1614364" lon="12.2828041"><ele>250.0</ele><time>2026-03-29T12:44:56.162Z</time></trkpt><trkpt lat="43.1614079" lon="12.2827259"><ele>250.0</ele><time>2026-03-29T12:45:07.098Z</time></trkpt><trkpt lat="43.1614607" lon="12.2827958"><ele>250.0</ele><time>2026-03-29T12:45:34.955Z</time></trkpt><trkpt lat="43.1615259" lon="12.2827926"><ele>249.99999999999997</ele><time>2026-03-29T12:45:42.855Z</time></trkpt><trkpt lat="43.1615285" lon="12.2826473"><ele>250.0</ele><time>2026-03-29T12:45:57.043Z</time></trkpt><trkpt lat="43.1615698" lon="12.2825354"><ele>250.0</ele><time>2026-03-29T12:46:42.049Z</time></trkpt><trkpt lat="43.1614998" lon="12.2826652"><ele>250.0</ele><time>2026-03-29T12:47:50.287Z</time></trkpt><trkpt lat="43.1614492" lon="12.28244"><ele>250.0</ele><time>2026-03-29T12:49:40.044Z</time></trkpt><trkpt lat="43.1614963" lon="12.2826623"><ele>250.0</ele><time>2026-03-29T12:51:34.142Z</time></trkpt><trkpt lat="43.1614404" lon="12.282878"><ele>250.0</ele><time>2026-03-29T12:52:20.096Z</time></trkpt><trkpt lat="43.1614316" lon="12.282968"><ele>250.0</ele><time>2026-03-29T12:52:24.092Z</time></trkpt><trkpt lat="43.1615049" lon="12.2826654"><ele>250.0</ele><time>2026-03-29T12:52:31.98Z</time></trkpt><trkpt lat="43.1614925" lon="12.2825448"><ele>250.0</ele><time>2026-03-29T12:57:23.063Z</time></trkpt><trkpt lat="43.1614471" lon="12.2823778"><ele>250.0</ele><time>2026-03-29T12:57:28.112Z</time></trkpt><trkpt lat="43.1614916" lon="12.2826519"><ele>250.0</ele><time>2026-03-29T12:57:39.165Z</time></trkpt><trkpt lat="43.1614274" lon="12.2824167"><ele>250.0</ele><time>2026-03-29T12:57:45.042Z</time></trkpt><trkpt lat="43.1614986" lon="12.2826615"><ele>250.0</ele><time>2026-03-29T12:58:04.149Z</time></trkpt><trkpt lat="43.161578" lon="12.2827605"><ele>250.0</ele><time>2026-03-29T12:58:18.064Z</time></trkpt><trkpt lat="43.1616303" lon="12.2828097"><ele>250.0</ele><time>2026-03-29T12:58:20.062Z</time></trkpt><trkpt lat="43.1617106" lon="12.2828216"><ele>250.0</ele><time>2026-03-29T12:58:24.057Z</time></trkpt><trkpt lat="43.161499" lon="12.2826639"><ele>250.0</ele><time>2026-03-29T12:58:29.168Z</time></trkpt><trkpt lat="43.1613684" lon="12.282582"><ele>250.0</ele><time>2026-03-29T13:00:01.02Z</time></trkpt><trkpt lat="43.161282" lon="12.2825328"><ele>250.0</ele><time>2026-03-29T13:00:03.018Z</time></trkpt><trkpt lat="43.1615286" lon="12.2826856"><ele>250.0</ele><time>2026-03-29T13:02:49.136Z</time></trkpt><trkpt lat="43.16127" lon="12.2824416"><ele>250.0</ele><time>2026-03-29T13:04:35.144Z</time></trkpt><trkpt lat="43.1615001" lon="12.282666"><ele>249.99999999999997</ele><time>2026-03-29T13:04:58.091Z</time></trkpt><trkpt lat="43.1614431" lon="12.2827211"><ele>250.0</ele><time>2026-03-29T13:06:14.002Z</time></trkpt><trkpt lat="43.1615144" lon="12.2826337"><ele>250.0</ele><time>2026-03-29T13:06:43.76Z</time></trkpt><trkpt lat="43.1614889" lon="12.2825319"><ele>250.0</ele><time>2026-03-29T13:06:50.06Z</time></trkpt><trkpt lat="43.161503" lon="12.282664"><ele>249.99999999999997</ele><time>2026-03-29T13:07:20.965Z</time></trkpt><trkpt lat="43.1614377" lon="12.2825702"><ele>250.0</ele><time>2026-03-29T13:07:41.101Z</time></trkpt><trkpt lat="43.161367" lon="12.2825532"><ele>250.0</ele><time>2026-03-29T13:07:47.097Z</time></trkpt><trkpt lat="43.1615005" lon="12.2826656"><ele>250.0</ele><time>2026-03-29T13:08:10.694Z</time></trkpt><trkpt lat="43.1615714" lon="12.2824377"><ele>250.0</ele><time>2026-03-29T13:11:26.106Z</time></trkpt><trkpt lat="43.1614997" lon="12.2826507"><ele>249.99999999999997</ele><time>2026-03-29T13:11:49.808Z</time></trkpt><trkpt lat="43.161436" lon="12.2826366"><ele>250.0</ele><time>2026-03-29T13:11:52.122Z</time></trkpt><trkpt lat="43.1615319" lon="12.2826034"><ele>250.0</ele><time>2026-03-29T13:13:39.089Z</time></trkpt><trkpt lat="43.161443" lon="12.2825595"><ele>250.0</ele><time>2026-03-29T13:14:59.128Z</time></trkpt><trkpt lat="43.1615002" lon="12.2826654"><ele>249.99999999999997</ele><time>2026-03-29T13:15:10.271Z</time></trkpt><trkpt lat="43.1614609" lon="12.2825826"><ele>250.0</ele><time>2026-03-29T13:15:17.111Z</time></trkpt><trkpt lat="43.1614265" lon="12.2825095"><ele>250.0</ele><time>2026-03-29T13:15:28.05Z</time></trkpt><trkpt lat="43.1614989" lon="12.2826571"><ele>250.0</ele><time>2026-03-29T13:15:29.006Z</time></trkpt><trkpt lat="43.1616398" lon="12.2826136"><ele>250.0</ele><time>2026-03-29T13:16:51.117Z</time></trkpt><trkpt lat="43.1617011" lon="12.2825652"><ele>250.0</ele><time>2026-03-29T13:16:54.061Z</time></trkpt><trkpt lat="43.1616176" lon="12.2824013"><ele>250.0</ele><time>2026-03-29T13:16:57.112Z</time></trkpt><trkpt lat="43.1615219" lon="12.2826654"><ele>250.0</ele><time>2026-03-29T13:17:31.495Z</time></trkpt><trkpt lat="43.1614527" lon="12.2828396"><ele>250.0</ele><time>2026-03-29T13:22:14.855Z</time></trkpt><trkpt lat="43.1614295" lon="12.2829305"><ele>250.0</ele><time>2026-03-29T13:22:28.028Z</time></trkpt><trkpt lat="43.1613965" lon="12.2830241"><ele>250.0</ele><time>2026-03-29T13:22:33.161Z</time></trkpt><trkpt lat="43.1613742" lon="12.2831098"><ele>250.0</ele><time>2026-03-29T13:22:43.069Z</time></trkpt><trkpt lat="43.1612775" lon="12.2837182"><ele>250.0</ele><time>2026-03-29T13:22:46.501Z</time></trkpt><trkpt lat="43.1614017" lon="12.2832585"><ele>250.0</ele><time>2026-03-29T13:22:52.802Z</time></trkpt><trkpt lat="43.161409" lon="12.2831348"><ele>250.0</ele><time>2026-03-29T13:22:59.113Z</time></trkpt><trkpt lat="43.161222" lon="12.2836426"><ele>250.0</ele><time>2026-03-29T13:23:19.155Z</time></trkpt><trkpt lat="43.1611388" lon="12.2836206"><ele>250.0</ele><time>2026-03-29T13:23:30.092Z</time></trkpt><trkpt lat="43.1610749" lon="12.2836175"><ele>250.0</ele><time>2026-03-29T13:23:36.087Z</time></trkpt><trkpt lat="43.1609866" lon="12.2835997"><ele>250.0</ele><time>2026-03-29T13:23:51.127Z</time></trkpt><trkpt lat="43.1602765" lon="12.2848362"><ele>250.0</ele><time>2026-03-29T13:24:22.135Z</time></trkpt><trkpt lat="43.1605974" lon="12.2843068"><ele>250.0</ele><time>2026-03-29T13:24:25.078Z</time></trkpt><trkpt lat="43.160364" lon="12.2849426"><ele>250.0</ele><time>2026-03-29T13:25:18.073Z</time></trkpt><trkpt lat="43.1603958" lon="12.2848626"><ele>250.0</ele><time>2026-03-29T13:25:21.124Z</time></trkpt><trkpt lat="43.1604854" lon="12.2846921"><ele>250.0</ele><time>2026-03-29T13:25:22.071Z</time></trkpt><trkpt lat="43.1605744" lon="12.284542"><ele>250.0</ele><time>2026-03-29T13:25:23.122Z</time></trkpt><trkpt lat="43.1613461" lon="12.2831592"><ele>250.0</ele><time>2026-03-29T13:25:37.371Z</time></trkpt><trkpt lat="43.1611741" lon="12.2832196"><ele>250.0</ele><time>2026-03-29T13:25:50.478Z</time></trkpt><trkpt lat="43.1610323" lon="12.2845236"><ele>250.0</ele><time>2026-03-29T13:25:57.458Z</time></trkpt><trkpt lat="43.1608858" lon="12.2846267"><ele>250.0</ele><time>2026-03-29T13:26:04.414Z</time></trkpt><trkpt lat="43.1606288" lon="12.2847694"><ele>250.0</ele><time>2026-03-29T13:26:11.371Z</time></trkpt><trkpt lat="43.1603979" lon="12.2856062"><ele>250.5</ele><time>2026-03-29T13:26:18.411Z</time></trkpt><trkpt lat="43.160316" lon="12.2860482"><ele>251.0</ele><time>2026-03-29T13:26:25.406Z</time></trkpt><trkpt lat="43.1601029" lon="12.2862463"><ele>254.0</ele><time>2026-03-29T13:26:32.404Z</time></trkpt><trkpt lat="43.1602699" lon="12.286959"><ele>256.0</ele><time>2026-03-29T13:26:38.661Z</time></trkpt><trkpt lat="43.1602805" lon="12.2874874"><ele>258.0</ele><time>2026-03-29T13:26:45.339Z</time></trkpt><trkpt lat="43.1601839" lon="12.288536"><ele>260.0</ele><time>2026-03-29T13:26:52.347Z</time></trkpt><trkpt lat="43.1600696" lon="12.2895456"><ele>261.0</ele><time>2026-03-29T13:26:59.318Z</time></trkpt><trkpt lat="43.1599146" lon="12.2900706"><ele>262.0</ele><time>2026-03-29T13:27:05.433Z</time></trkpt><trkpt lat="43.1594823" lon="12.2910789"><ele>259.0</ele><time>2026-03-29T13:27:12.376Z</time></trkpt><trkpt lat="43.1593331" lon="12.2919598"><ele>254.0</ele><time>2026-03-29T13:27:19.373Z</time></trkpt><trkpt lat="43.1595904" lon="12.2926975"><ele>251.0</ele><time>2026-03-29T13:27:26.396Z</time></trkpt><trkpt lat="43.1599172" lon="12.2932757"><ele>249.0</ele><time>2026-03-29T13:27:32.617Z</time></trkpt><trkpt lat="43.1607908" lon="12.2940782"><ele>252.0</ele><time>2026-03-29T13:27:46.38Z</time></trkpt><trkpt lat="43.1613439" lon="12.2952952"><ele>252.0</ele><time>2026-03-29T13:27:53.392Z</time></trkpt><trkpt lat="43.1617311" lon="12.2959621"><ele>253.0</ele><time>2026-03-29T13:28:00.503Z</time></trkpt><trkpt lat="43.1618551" lon="12.2972558"><ele>257.0</ele><time>2026-03-29T13:28:07.42Z</time></trkpt><trkpt lat="43.1616764" lon="12.2986013"><ele>265.0</ele><time>2026-03-29T13:28:14.416Z</time></trkpt><trkpt lat="43.1618249" lon="12.300664"><ele>256.0</ele><time>2026-03-29T13:28:21.354Z</time></trkpt><trkpt lat="43.1622386" lon="12.3061039"><ele>260.0</ele><time>2026-03-29T13:28:55.349Z</time></trkpt><trkpt lat="43.1625025" lon="12.307419"><ele>259.0</ele><time>2026-03-29T13:29:01.639Z</time></trkpt><trkpt lat="43.1623705" lon="12.3095123"><ele>257.0</ele><time>2026-03-29T13:29:15.4Z</time></trkpt><trkpt lat="43.1604758" lon="12.3101362"><ele>255.0</ele><time>2026-03-29T13:29:35.361Z</time></trkpt><trkpt lat="43.1595343" lon="12.3092982"><ele>263.0</ele><time>2026-03-29T13:29:42.337Z</time></trkpt><trkpt lat="43.163913" lon="12.3116365"><ele>387.0</ele><time>2026-03-29T13:30:24.542Z</time></trkpt><trkpt lat="43.2212143" lon="12.3276537"><ele>377.0</ele><time>2026-03-29T13:36:06.397Z</time></trkpt><trkpt lat="43.2236115" lon="12.3302616"><ele>293.0</ele><time>2026-03-29T13:36:13.394Z</time></trkpt><trkpt lat="43.2388701" lon="12.3635204"><ele>234.0</ele><time>2026-03-29T13:39:20.15Z</time></trkpt><trkpt lat="43.263691" lon="12.3852041"><ele>232.0</ele><time>2026-03-29T13:42:19.62Z</time></trkpt><trkpt lat="43.262764" lon="12.3844683"><ele>234.0</ele><time>2026-03-29T13:43:09.401Z</time></trkpt><trkpt lat="43.2637057" lon="12.3852138"><ele>259.0</ele><time>2026-03-29T13:43:16.467Z</time></trkpt><trkpt lat="43.277646" lon="12.3827703"><ele>273.0</ele><time>2026-03-29T13:44:46.411Z</time></trkpt><trkpt lat="43.2861388" lon="12.3790936"><ele>251.0</ele><time>2026-03-29T13:45:34.984Z</time></trkpt><trkpt lat="43.2886134" lon="12.3740118"><ele>245.0</ele><time>2026-03-29T13:45:48.411Z</time></trkpt><trkpt lat="43.3312538" lon="12.3141611"><ele>284.0</ele><time>2026-03-29T13:50:06.334Z</time></trkpt><trkpt lat="43.3665243" lon="12.265295"><ele>269.0</ele><time>2026-03-29T13:53:27.45Z</time></trkpt><trkpt lat="43.3804372" lon="12.2532394"><ele>272.0</ele><time>2026-03-29T13:54:28.687Z</time></trkpt><trkpt lat="43.3889518" lon="12.2528178"><ele>267.0</ele><time>2026-03-29T13:54:35.442Z</time></trkpt><trkpt lat="43.3850784" lon="12.2536362"><ele>266.0</ele><time>2026-03-29T13:54:49.355Z</time></trkpt><trkpt lat="43.391289" lon="12.2502465"><ele>280.0</ele><time>2026-03-29T13:55:10.358Z</time></trkpt><trkpt lat="43.4067145" lon="12.2517518"><ele>266.0</ele><time>2026-03-29T13:55:51.388Z</time></trkpt><trkpt lat="43.4122329" lon="12.248068"><ele>281.0</ele><time>2026-03-29T13:56:32.225Z</time></trkpt><trkpt lat="43.4183368" lon="12.2473287"><ele>288.0</ele><time>2026-03-29T13:56:47.422Z</time></trkpt><trkpt lat="43.4190643" lon="12.249104"><ele>288.0</ele><time>2026-03-29T13:57:01.272Z</time></trkpt><trkpt lat="43.4381949" lon="12.2418534"><ele>283.0</ele><time>2026-03-29T13:57:49.373Z</time></trkpt><trkpt lat="43.4689271" lon="12.2273066"><ele>280.0</ele><time>2026-03-29T14:00:33.434Z</time></trkpt><trkpt lat="43.4728228" lon="12.2247052"><ele>282.0</ele><time>2026-03-29T14:00:47.39Z</time></trkpt><trkpt lat="43.4795104" lon="12.2197299"><ele>285.0</ele><time>2026-03-29T14:01:15.407Z</time></trkpt><trkpt lat="43.4799036" lon="12.2178821"><ele>280.0</ele><time>2026-03-29T14:01:22.407Z</time></trkpt><trkpt lat="43.4751908" lon="12.2215795"><ele>302.0</ele><time>2026-03-29T14:06:15.438Z</time></trkpt><trkpt lat="43.5379587" lon="12.169755"><ele>310.0</ele><time>2026-03-29T14:06:22.367Z</time></trkpt><trkpt lat="43.5406626" lon="12.1725973"><ele>310.0</ele><time>2026-03-29T14:06:43.45Z</time></trkpt><trkpt lat="43.5411643" lon="12.1728977"><ele>328.0</ele><time>2026-03-29T14:06:50.374Z</time></trkpt><trkpt lat="43.5456893" lon="12.1848429"><ele>328.0</ele><time>2026-03-29T14:07:46.475Z</time></trkpt><trkpt lat="43.5456119" lon="12.1850657"><ele>328.0</ele><time>2026-03-29T14:07:53.468Z</time></trkpt><trkpt lat="43.5461061" lon="12.1844494"><ele>337.0</ele><time>2026-03-29T14:08:00.458Z</time></trkpt><trkpt lat="43.5476287" lon="12.1834158"><ele>381.0</ele><time>2026-03-29T14:08:07.496Z</time></trkpt><trkpt lat="43.5532507" lon="12.1841016"><ele>692.0</ele><time>2026-03-29T14:08:49.46Z</time></trkpt><trkpt lat="43.5615623" lon="12.2037426"><ele>302.0</ele><time>2026-03-29T14:15:49.868Z</time></trkpt><trkpt lat="43.503392" lon="12.2092011"><ele>605.0</ele><time>2026-03-29T14:20:50.205Z</time></trkpt><trkpt lat="43.6215634" lon="12.2545026"><ele>587.0</ele><time>2026-03-29T14:36:33.456Z</time></trkpt><trkpt lat="43.6236389" lon="12.2564233"><ele>548.0</ele><time>2026-03-29T14:37:08.437Z</time></trkpt><trkpt lat="43.6361769" lon="12.2769141"><ele>518.0</ele><time>2026-03-29T14:39:35.427Z</time></trkpt><trkpt lat="43.6458831" lon="12.2834396"><ele>472.0</ele><time>2026-03-29T14:40:38.42Z</time></trkpt><trkpt lat="43.6577189" lon="12.2942482"><ele>430.0</ele><time>2026-03-29T14:41:12.463Z</time></trkpt><trkpt lat="43.6480278" lon="12.3326076"><ele>430.0</ele><time>2026-03-29T14:44:20.222Z</time></trkpt><trkpt lat="43.6463705" lon="12.3343779"><ele>421.0</ele><time>2026-03-29T14:44:35.527Z</time></trkpt><trkpt lat="43.6458471" lon="12.3373861"><ele>426.0</ele><time>2026-03-29T14:45:10.454Z</time></trkpt><trkpt lat="43.6468596" lon="12.3378556"><ele>418.0</ele><time>2026-03-29T14:45:17.527Z</time></trkpt><trkpt lat="43.6474789" lon="12.3381638"><ele>407.0</ele><time>2026-03-29T14:45:24.453Z</time></trkpt><trkpt lat="43.6477399" lon="12.341078"><ele>407.0</ele><time>2026-03-29T14:45:31.425Z</time></trkpt><trkpt lat="43.6464592" lon="12.347652"><ele>426.0</ele><time>2026-03-29T14:46:20.436Z</time></trkpt><trkpt lat="43.6473701" lon="12.3374227"><ele>426.0</ele><time>2026-03-29T14:46:48.448Z</time></trkpt></trkseg></trk></gpx>